Time;durP1;ratioP1;P1;durP2;ratioP2;P2;SDS_P1;SDS_P2;PMS_P1;PMS_P2;Temp;Humidity;BMP_temperature;BMP_pressure;BME280_temperature;BME280_humidity;BME280_pressure;Samples;Min_cycle;Max_cycle;Signal;HPM_P1;HPM_P2
2021/05/25 00:00:32;;;;;;;3.00;2.80;;;11.10;99.90;;;;;;5012138;28;20216;-92
2021/05/25 00:03:00;;;;;;;2.80;2.60;;;11.10;99.90;;;;;;5010417;28;20666;-91
2021/05/25 00:05:30;;;;;;;3.67;2.72;;;11.20;99.90;;;;;;5010257;28;20216;-91
2021/05/25 00:07:58;;;;;;;2.47;2.38;;;11.20;99.90;;;;;;5012531;28;20218;-90
2021/05/25 00:10:25;;;;;;;3.95;2.75;;;11.20;99.90;;;;;;5013798;28;20216;-91
2021/05/25 00:12:52;;;;;;;13.40;3.03;;;11.20;99.90;;;;;;5015857;28;20210;-91
2021/05/25 00:15:22;;;;;;;3.00;2.80;;;11.20;99.90;;;;;;5012233;28;20228;-89
2021/05/25 00:17:49;;;;;;;2.97;2.70;;;11.20;99.90;;;;;;5013887;28;20732;-92
2021/05/25 00:20:17;;;;;;;3.10;2.90;;;11.20;99.90;;;;;;5011473;28;20212;-90
2021/05/25 00:22:44;;;;;;;7.07;2.72;;;11.20;99.90;;;;;;5010885;28;20216;-91
2021/05/25 00:25:14;;;;;;;2.70;2.50;;;11.20;99.90;;;;;;5003133;28;20651;-91
2021/05/25 00:27:42;;;;;;;3.13;2.92;;;11.20;99.90;;;;;;5009799;28;20225;-91
2021/05/25 00:30:11;;;;;;;3.10;2.90;;;11.20;99.90;;;;;;5010199;28;20234;-91
2021/05/25 00:32:37;;;;;;;2.95;2.75;;;11.20;99.90;;;;;;5009978;28;20208;-93
2021/05/25 00:35:05;;;;;;;3.00;2.80;;;11.20;99.90;;;;;;5011031;28;20219;-90
2021/05/25 00:37:32;;;;;;;3.22;3.03;;;11.20;99.90;;;;;;5009446;28;20200;-90
2021/05/25 00:39:59;;;;;;;2.97;2.78;;;11.20;99.90;;;;;;5008900;28;20223;-93
2021/05/25 00:42:27;;;;;;;3.30;3.10;;;11.20;99.90;;;;;;5008600;28;20234;-91
2021/05/25 00:44:54;;;;;;;2.83;2.70;;;11.10;99.90;;;;;;5011880;28;20208;-92
2021/05/25 00:47:27;;;;;;;2.92;2.65;;;11.10;99.90;;;;;;5010872;28;20227;-92
2021/05/25 00:49:55;;;;;;;3.03;2.83;;;11.10;99.90;;;;;;5005803;28;20192;-92
2021/05/25 00:52:22;;;;;;;3.45;3.25;;;11.10;99.90;;;;;;5009331;28;20235;-92
2021/05/25 00:54:49;;;;;;;3.40;3.20;;;11.10;99.90;;;;;;5013078;28;20583;-91
2021/05/25 00:57:16;;;;;;;2.95;2.75;;;11.10;99.90;;;;;;5003585;28;20711;-91
2021/05/25 00:59:44;;;;;;;3.00;2.80;;;11.10;99.90;;;;;;5013780;28;20193;-92
2021/05/25 01:02:10;;;;;;;2.70;2.60;;;11.10;99.90;;;;;;5011498;28;20227;-91
2021/05/25 01:04:37;;;;;;;2.53;2.42;;;11.20;99.90;;;;;;5015992;28;20245;-93
2021/05/25 01:07:03;;;;;;;2.25;2.15;;;11.20;99.90;;;;;;5008876;28;20221;-91
2021/05/25 01:09:32;;;;;;;2.67;2.55;;;11.20;99.90;;;;;;5010581;28;20200;-92
2021/05/25 01:12:01;;;;;;;3.00;2.80;;;11.20;99.90;;;;;;5017589;28;20310;-91
2021/05/25 01:14:36;;;;;;;3.05;2.85;;;11.20;99.90;;;;;;5005695;28;20303;-90
2021/05/25 01:17:03;;;;;;;2.55;2.45;;;11.20;99.90;;;;;;5014397;28;20225;-92
2021/05/25 01:19:30;;;;;;;2.80;2.60;;;11.20;99.90;;;;;;5011618;28;20209;-93
2021/05/25 01:21:59;;;;;;;2.72;2.63;;;11.30;99.90;;;;;;5011638;28;20224;-92
2021/05/25 01:24:30;;;;;;;2.53;2.33;;;11.20;99.90;;;;;;5010528;28;20204;-91
2021/05/25 01:27:00;;;;;;;2.33;2.22;;;11.30;99.90;;;;;;5012243;28;20223;-93
2021/05/25 01:29:27;;;;;;;2.50;2.40;;;11.20;99.90;;;;;;5013142;28;20196;-92
2021/05/25 01:31:54;;;;;;;2.50;2.40;;;11.20;99.90;;;;;;5009780;28;20223;-94
2021/05/25 01:34:20;;;;;;;2.42;2.33;;;11.30;99.90;;;;;;5007753;28;20204;-92
2021/05/25 01:36:47;;;;;;;2.28;2.17;;;11.20;99.90;;;;;;5005070;28;20279;-92
2021/05/25 01:39:16;;;;;;;2.92;2.72;;;11.20;99.90;;;;;;5014818;28;20206;-93
2021/05/25 01:41:42;;;;;;;2.80;2.60;;;11.30;99.90;;;;;;5016956;28;20737;-90
2021/05/25 01:44:10;;;;;;;2.95;2.75;;;11.30;99.90;;;;;;5006411;28;20208;-92
2021/05/25 01:46:37;;;;;;;2.22;2.13;;;11.30;99.90;;;;;;5004442;28;20231;-91
2021/05/25 01:49:03;;;;;;;2.20;2.10;;;11.30;99.90;;;;;;5007934;28;20200;-91
2021/05/25 01:51:30;;;;;;;2.92;2.72;;;11.30;99.90;;;;;;5009393;28;20231;-91
2021/05/25 01:53:57;;;;;;;3.00;2.60;;;11.20;99.90;;;;;;5009893;28;20220;-90
2021/05/25 01:56:24;;;;;;;2.20;2.10;;;11.20;99.90;;;;;;5008859;28;20704;-92
2021/05/25 01:58:51;;;;;;;2.45;2.35;;;11.20;99.90;;;;;;5012695;28;20211;-92
2021/05/25 02:01:17;;;;;;;2.60;2.50;;;11.20;99.90;;;;;;5009574;28;20220;-91
2021/05/25 02:03:44;;;;;;;2.47;2.38;;;11.20;99.90;;;;;;5010456;28;20202;-91
2021/05/25 02:06:11;;;;;;;2.55;2.45;;;11.20;99.90;;;;;;5006667;28;20223;-94
2021/05/25 02:08:39;;;;;;;3.00;2.80;;;11.20;99.90;;;;;;5008980;28;20212;-90
2021/05/25 02:11:07;;;;;;;3.15;2.95;;;11.20;99.90;;;;;;5003990;28;20623;-91
2021/05/25 02:13:37;;;;;;;3.25;3.05;;;11.20;99.90;;;;;;5006378;28;20635;-92
2021/05/25 02:16:06;;;;;;;2.65;2.53;;;11.20;99.90;;;;;;5007281;28;20258;-90
2021/05/25 02:18:36;;;;;;;2.60;2.50;;;11.20;99.90;;;;;;5003226;28;20213;-88
2021/05/25 02:21:04;;;;;;;2.50;2.40;;;11.20;99.90;;;;;;4999054;28;20235;-93
2021/05/25 02:23:32;;;;;;;2.67;2.55;;;11.20;99.90;;;;;;5013380;28;20209;-92
2021/05/25 02:25:58;;;;;;;2.50;2.40;;;11.30;99.90;;;;;;5010240;28;20277;-92
2021/05/25 02:28:26;;;;;;;2.30;2.20;;;11.30;99.90;;;;;;5014558;28;20215;-89
2021/05/25 02:30:54;;;;;;;2.88;2.78;;;11.30;99.90;;;;;;5004744;28;20248;-91
2021/05/25 02:33:22;;;;;;;2.70;2.60;;;11.30;99.90;;;;;;5003245;28;20204;-89
2021/05/25 02:35:52;;;;;;;2.42;2.33;;;11.30;99.90;;;;;;5006523;28;20227;-91
2021/05/25 02:38:19;;;;;;;2.50;2.30;;;11.30;99.90;;;;;;5002884;28;20204;-92
2021/05/25 02:40:48;;;;;;;3.25;2.53;;;11.30;99.90;;;;;;5007650;28;20203;-91
2021/05/25 02:43:16;;;;;;;2.63;2.53;;;11.30;99.90;;;;;;5006718;28;20208;-91
2021/05/25 02:45:46;;;;;;;2.50;2.40;;;11.20;99.90;;;;;;5008415;28;20219;-90
2021/05/25 02:48:16;;;;;;;2.30;2.20;;;11.20;99.90;;;;;;5008497;28;20207;-88
2021/05/25 02:50:44;;;;;;;4.43;2.90;;;11.20;99.90;;;;;;5000934;28;20860;-90
2021/05/25 02:53:11;;;;;;;5.97;2.65;;;11.20;99.90;;;;;;5009652;28;20196;-87
2021/05/25 02:55:39;;;;;;;2.40;2.30;;;11.20;99.90;;;;;;5006628;28;20200;-91
2021/05/25 02:58:08;;;;;;;2.28;2.17;;;11.20;99.90;;;;;;5008966;28;20323;-91
2021/05/25 03:00:38;;;;;;;2.42;2.33;;;11.10;99.90;;;;;;5006443;28;20207;-92
2021/05/25 03:03:05;;;;;;;2.22;2.13;;;11.10;99.90;;;;;;5005560;28;20291;-91
2021/05/25 03:05:34;;;;;;;2.33;2.22;;;11.10;99.90;;;;;;5005792;28;20654;-91
2021/05/25 03:08:02;;;;;;;2.30;2.20;;;11.10;99.90;;;;;;5014476;28;20223;-91
2021/05/25 03:10:30;;;;;;;2.10;2.00;;;11.10;99.90;;;;;;5008010;28;20254;-91
2021/05/25 03:12:58;;;;;;;2.28;2.17;;;11.20;99.90;;;;;;5002608;28;20228;-91
2021/05/25 03:15:27;;;;;;;2.05;1.95;;;11.20;99.90;;;;;;5006802;28;20193;-91
2021/05/25 03:17:53;;;;;;;2.45;2.35;;;11.20;99.90;;;;;;5009527;28;20216;-91
2021/05/25 03:20:21;;;;;;;2.08;1.98;;;11.20;99.90;;;;;;5006107;28;20200;-93
2021/05/25 03:22:48;;;;;;;2.33;2.22;;;11.20;99.90;;;;;;5009111;28;20216;-90
2021/05/25 03:25:16;;;;;;;2.40;2.30;;;11.20;99.90;;;;;;5009274;28;20204;-92
2021/05/25 03:27:43;;;;;;;2.15;2.05;;;11.20;99.90;;;;;;5002732;28;20227;-93
2021/05/25 03:30:14;;;;;;;2.30;2.20;;;11.20;99.90;;;;;;5003049;28;20205;-89
2021/05/25 03:32:40;;;;;;;2.30;2.20;;;11.20;99.90;;;;;;5011614;28;20268;-91
2021/05/25 03:35:10;;;;;;;2.15;2.05;;;11.20;99.90;;;;;;5000311;28;20270;-89
2021/05/25 03:37:37;;;;;;;2.22;2.13;;;11.20;99.90;;;;;;5012468;28;20212;-90
2021/05/25 03:40:07;;;;;;;2.17;2.08;;;11.20;99.90;;;;;;5011196;28;20210;-89
2021/05/25 03:42:34;;;;;;;2.00;1.90;;;11.20;99.90;;;;;;5009569;28;20573;-91
2021/05/25 03:45:01;;;;;;;1.60;1.60;;;11.30;99.90;;;;;;5010125;28;20216;-91
2021/05/25 03:47:28;;;;;;;2.67;2.58;;;11.30;99.90;;;;;;5005069;28;20220;-92
2021/05/25 03:50:06;;;;;;;2.30;2.20;;;11.30;99.90;;;;;;5014195;28;20200;-89
2021/05/25 03:52:33;;;;;;;2.28;2.17;;;11.30;99.90;;;;;;5016359;28;20281;-91
2021/05/25 03:55:01;;;;;;;2.13;2.03;;;11.30;99.90;;;;;;5005757;28;20197;-91
2021/05/25 04:00:15;;;;;;;2.13;2.03;;;11.30;99.90;;;;;;5006885;28;20331;-89
2021/05/25 04:02:42;;;;;;;2.33;2.22;;;11.40;99.90;;;;;;5004354;28;20220;-90
2021/05/25 04:05:10;;;;;;;8.68;2.78;;;11.40;99.90;;;;;;5006565;28;20227;-92
2021/05/25 04:07:37;;;;;;;2.65;2.55;;;11.40;99.90;;;;;;5002576;28;20227;-91
2021/05/25 04:10:04;;;;;;;3.10;2.90;;;11.40;99.90;;;;;;5009502;28;20636;-91
2021/05/25 04:12:32;;;;;;;3.10;2.90;;;11.40;99.90;;;;;;5011024;28;20228;-91
2021/05/25 04:14:58;;;;;;;3.75;3.10;;;11.40;99.90;;;;;;5006402;28;20210;-93
2021/05/25 04:17:28;;;;;;;188.27;7.38;;;11.30;99.90;;;;;;5013389;28;20216;-92
2021/05/25 04:19:55;;;;;;;4.03;2.95;;;11.30;99.90;;;;;;5009240;28;20204;-91
2021/05/25 04:22:21;;;;;;;7.75;3.50;;;11.20;99.90;;;;;;5011913;28;20686;-91
2021/05/25 04:24:48;;;;;;;3.13;2.92;;;11.20;99.90;;;;;;5008806;28;20196;-92
2021/05/25 04:27:15;;;;;;;3.28;3.03;;;11.10;99.90;;;;;;5012077;28;20220;-91
2021/05/25 04:29:42;;;;;;;3.30;3.10;;;11.20;99.90;;;;;;5012848;28;20409;-91
2021/05/25 04:32:09;;;;;;;2.80;2.60;;;11.20;99.90;;;;;;5007136;28;20224;-93
2021/05/25 04:34:36;;;;;;;3.30;3.10;;;11.20;99.90;;;;;;5007419;28;20197;-91
2021/05/25 04:37:02;;;;;;;3.80;2.90;;;11.30;99.90;;;;;;5011788;28;20228;-92
2021/05/25 04:39:29;;;;;;;3.67;3.38;;;11.30;99.90;;;;;;5009996;28;20199;-90
2021/05/25 04:41:56;;;;;;;3.10;2.90;;;11.30;99.90;;;;;;5008208;28;20220;-91
2021/05/25 04:44:22;;;;;;;3.67;3.17;;;11.30;99.90;;;;;;5009303;28;20254;-92
2021/05/25 04:46:50;;;;;;;2.95;2.75;;;11.30;99.90;;;;;;5009722;28;20228;-90
2021/05/25 04:49:16;;;;;;;3.22;2.92;;;11.30;99.90;;;;;;5014863;28;20204;-91
2021/05/25 04:51:43;;;;;;;3.05;2.85;;;11.30;99.90;;;;;;5011108;28;20219;-90
2021/05/25 04:54:10;;;;;;;3.20;3.00;;;11.30;99.90;;;;;;5007408;28;20236;-92
2021/05/25 04:56:36;;;;;;;3.83;3.63;;;11.40;99.90;;;;;;5009824;28;20227;-90
2021/05/25 04:59:03;;;;;;;3.88;3.60;;;11.40;99.90;;;;;;5008012;28;20205;-90
2021/05/25 05:01:30;;;;;;;3.63;3.42;;;11.40;99.90;;;;;;5006417;28;20240;-91
2021/05/25 05:03:57;;;;;;;6.43;3.17;;;11.50;99.90;;;;;;5005064;28;20283;-92
2021/05/25 05:06:24;;;;;;;3.50;3.30;;;11.50;99.90;;;;;;5011320;28;20227;-91
2021/05/25 05:08:51;;;;;;;3.10;2.90;;;11.50;99.90;;;;;;5008619;28;20671;-91
2021/05/25 05:11:18;;;;;;;3.15;2.95;;;11.50;99.90;;;;;;5012570;28;20249;-91
2021/05/25 05:13:44;;;;;;;3.72;3.53;;;11.50;99.90;;;;;;5013341;28;20208;-93
2021/05/25 05:16:12;;;;;;;3.30;3.10;;;11.60;99.90;;;;;;5009846;28;20200;-92
2021/05/25 05:18:39;;;;;;;3.33;3.13;;;11.60;99.90;;;;;;5012643;28;20204;-92
2021/05/25 05:21:07;;;;;;;3.50;3.30;;;11.60;99.90;;;;;;5008164;28;20263;-93
2021/05/25 05:23:34;;;;;;;3.45;3.25;;;11.70;99.90;;;;;;5012371;28;20697;-90
2021/05/25 05:26:01;;;;;;;3.30;3.10;;;11.70;99.90;;;;;;5014162;28;20200;-91
2021/05/25 05:28:27;;;;;;;3.40;3.20;;;11.70;99.90;;;;;;5009626;28;20251;-93
2021/05/25 05:30:55;;;;;;;3.47;3.28;;;11.70;99.90;;;;;;5005051;28;20601;-93
2021/05/25 05:33:22;;;;;;;3.60;3.40;;;11.70;99.90;;;;;;5006590;28;20372;-93
2021/05/25 05:35:48;;;;;;;3.17;2.97;;;11.70;99.90;;;;;;5011532;28;20219;-90
2021/05/25 05:38:17;;;;;;;3.50;3.20;;;11.80;99.90;;;;;;5002423;28;20219;-92
2021/05/25 05:40:44;;;;;;;3.92;3.63;;;11.80;99.90;;;;;;5003058;28;20387;-91
2021/05/25 05:43:11;;;;;;;4.35;3.78;;;11.90;99.90;;;;;;5006158;28;20664;-92
2021/05/25 05:45:38;;;;;;;4.15;3.60;;;12.00;99.90;;;;;;5006992;28;20223;-90
2021/05/25 05:48:06;;;;;;;44.75;5.72;;;12.00;99.90;;;;;;5002715;28;20215;-90
2021/05/25 05:50:33;;;;;;;11.13;4.60;;;12.00;99.90;;;;;;5001837;28;20204;-92
2021/05/25 05:53:00;;;;;;;12.77;5.15;;;11.90;99.90;;;;;;5004816;28;20266;-91
2021/05/25 05:55:28;;;;;;;37.75;5.72;;;11.80;99.90;;;;;;5007708;28;20211;-91
2021/05/25 05:57:55;;;;;;;31.00;5.70;;;11.70;99.90;;;;;;5003956;28;20282;-90
2021/05/25 06:00:22;;;;;;;3.88;3.67;;;11.70;99.90;;;;;;5004250;28;20200;-90
2021/05/25 06:02:49;;;;;;;4.07;3.88;;;11.60;99.90;;;;;;5003720;28;20623;-92
2021/05/25 06:05:16;;;;;;;3.67;3.47;;;11.60;99.90;;;;;;5003767;28;20919;-89
2021/05/25 06:07:42;;;;;;;5.10;4.80;;;11.70;99.90;;;;;;5004883;28;20238;-92
2021/05/25 06:10:10;;;;;;;4.15;3.85;;;11.80;99.90;;;;;;5003758;28;20291;-92
2021/05/25 06:12:38;;;;;;;3.78;3.58;;;11.80;99.90;;;;;;5001411;28;20224;-91
2021/05/25 06:15:06;;;;;;;3.60;3.40;;;11.90;99.90;;;;;;5005975;28;20216;-91
2021/05/25 06:17:32;;;;;;;3.78;3.58;;;11.90;99.90;;;;;;5006941;28;20561;-92
2021/05/25 06:19:59;;;;;;;4.32;4.05;;;12.00;99.90;;;;;;5007757;28;20651;-91
2021/05/25 06:22:26;;;;;;;3.60;3.40;;;12.00;99.90;;;;;;5002672;28;20691;-90
2021/05/25 06:24:52;;;;;;;3.50;3.30;;;12.10;99.90;;;;;;5006945;28;20200;-91
2021/05/25 06:27:19;;;;;;;3.40;3.20;;;12.10;99.90;;;;;;5004258;28;20240;-91
2021/05/25 06:29:47;;;;;;;3.95;3.67;;;12.20;99.90;;;;;;5004309;28;20260;-92
2021/05/25 06:32:13;;;;;;;3.25;3.05;;;12.30;99.90;;;;;;5005048;28;20229;-91
2021/05/25 06:34:40;;;;;;;3.80;3.50;;;12.30;99.90;;;;;;5002465;28;20209;-90
2021/05/25 06:37:07;;;;;;;4.03;3.78;;;12.40;99.90;;;;;;5001155;28;20580;-91
2021/05/25 06:39:33;;;;;;;4.45;4.10;;;12.50;99.90;;;;;;5004683;28;20211;-90
2021/05/25 06:42:00;;;;;;;22.40;5.25;;;12.70;99.90;;;;;;5005364;28;20559;-92
2021/05/25 06:44:31;;;;;;;4.65;4.35;;;12.70;99.90;;;;;;5011778;28;20224;-93
2021/05/25 06:46:58;;;;;;;4.30;4.00;;;12.80;99.90;;;;;;5000696;28;20237;-90
2021/05/25 06:49:25;;;;;;;5.10;4.70;;;12.80;99.90;;;;;;5005237;28;20235;-90
2021/05/25 06:51:52;;;;;;;4.05;3.80;;;12.80;99.90;;;;;;5001832;28;20274;-89
2021/05/25 06:54:18;;;;;;;4.13;3.90;;;12.70;99.90;;;;;;5004571;28;20263;-88
2021/05/25 06:56:45;;;;;;;4.30;4.00;;;12.70;99.90;;;;;;5003983;28;20239;-92
2021/05/25 06:59:12;;;;;;;3.97;3.78;;;12.70;99.90;;;;;;5001731;28;20212;-93
2021/05/25 07:01:38;;;;;;;4.00;3.75;;;12.70;99.90;;;;;;5003450;28;20234;-92
2021/05/25 07:04:06;;;;;;;4.30;4.00;;;12.80;99.90;;;;;;5004541;28;20208;-92
2021/05/25 07:06:33;;;;;;;4.63;4.30;;;13.00;99.90;;;;;;5001112;28;21117;-90
2021/05/25 07:09:00;;;;;;;3.90;3.70;;;13.20;99.90;;;;;;5003415;28;20208;-91
2021/05/25 07:11:26;;;;;;;4.45;4.20;;;13.30;99.90;;;;;;5006475;28;20202;-93
2021/05/25 07:13:57;;;;;;;4.00;3.75;;;13.30;99.90;;;;;;4999152;28;20251;-90
2021/05/25 07:16:24;;;;;;;3.90;3.70;;;13.40;99.90;;;;;;5005438;28;20200;-92
2021/05/25 07:18:51;;;;;;;4.10;3.63;;;13.50;99.90;;;;;;5002411;28;20342;-90
2021/05/25 07:21:18;;;;;;;4.05;3.85;;;13.70;99.90;;;;;;5007024;28;20787;-90
2021/05/25 07:23:45;;;;;;;4.43;4.13;;;13.80;99.90;;;;;;5003345;28;20222;-88
2021/05/25 07:26:11;;;;;;;4.38;4.07;;;13.80;99.90;;;;;;5000972;28;20258;-89
2021/05/25 07:28:38;;;;;;;4.28;3.97;;;13.90;99.90;;;;;;5000285;28;20224;-88
2021/05/25 07:31:05;;;;;;;3.40;3.20;;;14.00;99.90;;;;;;5003909;28;20229;-84
2021/05/25 07:33:32;;;;;;;3.13;2.92;;;14.10;99.90;;;;;;5000723;28;20228;-87
2021/05/25 07:35:58;;;;;;;2.92;2.72;;;14.20;99.90;;;;;;4998409;28;20213;-89
2021/05/25 07:38:26;;;;;;;2.92;2.58;;;14.40;99.90;;;;;;5002163;28;20369;-84
2021/05/25 07:40:52;;;;;;;2.80;2.40;;;14.60;99.90;;;;;;5002893;28;20199;-86
2021/05/25 07:43:19;;;;;;;2.83;2.30;;;14.90;99.90;;;;;;4998792;28;20240;-88
2021/05/25 07:45:46;;;;;;;2.20;2.10;;;15.20;99.90;;;;;;4999953;28;20203;-90
2021/05/25 07:48:13;;;;;;;2.90;2.70;;;15.70;99.90;;;;;;4998837;28;20224;-83
2021/05/25 07:50:40;;;;;;;3.10;2.90;;;16.00;99.90;;;;;;5002053;28;20212;-84
2021/05/25 07:53:07;;;;;;;3.63;3.40;;;16.10;99.90;;;;;;5003720;28;20227;-81
2021/05/25 07:55:35;;;;;;;3.40;3.20;;;16.10;99.90;;;;;;5003321;28;20201;-87
2021/05/25 07:58:03;;;;;;;3.50;3.20;;;16.40;99.90;;;;;;5006240;28;20232;-83
2021/05/25 08:00:32;;;;;;;3.10;2.90;;;16.80;99.90;;;;;;4999253;28;20200;-84
2021/05/25 08:02:59;;;;;;;3.90;3.60;;;17.10;99.90;;;;;;5000016;28;20220;-84
2021/05/25 08:05:28;;;;;;;4.30;4.00;;;17.40;99.90;;;;;;5004014;28;20207;-83
2021/05/25 08:07:55;;;;;;;4.25;3.95;;;17.50;99.90;;;;;;4999138;28;20319;-90
2021/05/25 08:10:22;;;;;;;4.10;3.80;;;17.50;99.90;;;;;;5004589;28;20586;-86
2021/05/25 08:12:49;;;;;;;3.80;3.55;;;17.80;99.90;;;;;;5001496;28;20702;-85
2021/05/25 08:15:18;;;;;;;5.22;4.82;;;17.90;99.90;;;;;;5006600;28;20507;-88
2021/05/25 08:17:51;;;;;;;5.50;5.10;;;18.00;99.90;;;;;;5002027;28;20310;-88
2021/05/25 08:20:20;;;;;;;5.70;5.28;;;18.10;99.90;;;;;;5000715;28;20215;-83
2021/05/25 08:22:48;;;;;;;5.68;5.22;;;18.00;99.90;;;;;;4998002;28;20224;-78
2021/05/25 08:25:18;;;;;;;7.57;5.88;;;18.00;99.90;;;;;;5005124;28;20223;-89
2021/05/25 08:27:46;;;;;;;5.80;5.38;;;18.10;99.90;;;;;;5003328;28;20288;-81
2021/05/25 08:30:20;;;;;;;6.40;5.90;;;18.20;99.90;;;;;;5002032;28;20311;-91
2021/05/25 08:32:47;;;;;;;5.00;4.70;;;18.20;99.90;;;;;;5005539;28;20714;-92
2021/05/25 08:35:14;;;;;;;4.97;4.57;;;17.80;99.90;;;;;;5004935;28;20219;-91
2021/05/25 08:37:41;;;;;;;5.82;5.32;;;17.60;99.90;;;;;;5003996;28;20268;-90
2021/05/25 08:40:10;;;;;;;5.85;5.35;;;17.40;99.90;;;;;;5003712;28;20232;-90
2021/05/25 08:42:37;;;;;;;6.90;6.38;;;17.70;99.90;;;;;;5006762;28;20231;-92
2021/05/25 08:45:05;;;;;;;6.10;5.60;;;18.00;99.90;;;;;;5005961;28;20254;-92
2021/05/25 08:47:35;;;;;;;6.78;6.18;;;18.00;99.90;;;;;;5004022;28;20231;-91
2021/05/25 08:50:02;;;;;;;7.60;6.80;;;18.00;99.90;;;;;;5010032;28;20291;-91
2021/05/25 08:52:30;;;;;;;5.95;5.45;;;17.70;99.90;;;;;;5007594;28;20219;-92
2021/05/25 08:54:56;;;;;;;5.72;5.20;;;17.50;99.90;;;;;;5005257;28;20219;-92
2021/05/25 08:57:23;;;;;;;5.18;4.78;;;17.20;99.90;;;;;;5004778;28;20271;-92
2021/05/25 08:59:50;;;;;;;5.75;5.35;;;17.00;99.90;;;;;;5002693;28;20228;-91
2021/05/25 09:02:16;;;;;;;5.95;5.45;;;16.80;99.90;;;;;;5002048;28;20236;-91
2021/05/25 09:05:03;;;;;;;4.22;3.83;;;16.60;99.90;;;;;;5008065;28;20205;-91
2021/05/25 09:07:38;;;;;;;4.15;3.85;;;16.40;99.90;;;;;;5007009;28;20786;-92
2021/05/25 09:10:06;;;;;;;3.20;3.00;;;16.20;99.90;;;;;;5003136;28;20251;-92
2021/05/25 09:12:36;;;;;;;3.22;2.97;;;16.00;99.90;;;;;;5003762;28;20258;-91
2021/05/25 09:15:03;;;;;;;3.30;3.10;;;15.80;99.90;;;;;;5007777;28;20753;-91
2021/05/25 09:17:30;;;;;;;2.67;2.47;;;15.70;99.90;;;;;;5004879;28;20231;-91
2021/05/25 09:19:57;;;;;;;4.80;2.40;;;15.70;99.90;;;;;;5001723;28;20205;-92
2021/05/25 09:22:26;;;;;;;2.90;1.88;;;15.60;99.90;;;;;;4998755;28;20310;-92
2021/05/25 09:24:53;;;;;;;2.45;1.98;;;15.70;99.90;;;;;;5006645;28;20371;-90
2021/05/25 09:27:36;;;;;;;1.60;1.45;;;15.70;99.90;;;;;;5006629;28;20223;-90
2021/05/25 09:30:21;;;;;;;1.70;1.60;;;15.70;99.90;;;;;;5005707;28;20207;-90
2021/05/25 09:32:53;;;;;;;1.65;1.27;;;15.50;99.90;;;;;;5005079;28;20216;-91
2021/05/25 09:35:22;;;;;;;1.55;1.45;;;15.30;99.90;;;;;;5002716;28;20201;-90
2021/05/25 09:37:53;;;;;;;1.50;1.50;;;15.10;99.90;;;;;;5000813;28;20315;-91
2021/05/25 09:40:24;;;;;;;1.70;1.60;;;15.10;99.90;;;;;;5009858;28;20879;-93
2021/05/25 09:42:55;;;;;;;1.95;1.83;;;15.20;99.90;;;;;;5002394;28;20310;-89
2021/05/25 09:45:23;;;;;;;3.45;2.83;;;15.30;99.90;;;;;;5008928;28;20203;-91
2021/05/25 09:47:52;;;;;;;4.05;3.22;;;15.50;99.90;;;;;;5009595;28;20228;-90
2021/05/25 09:50:21;;;;;;;4.30;3.85;;;15.80;99.90;;;;;;5008063;28;20291;-91
2021/05/25 09:53:02;;;;;;;3.17;2.88;;;16.40;99.90;;;;;;5006266;28;20310;-91
2021/05/25 09:55:31;;;;;;;2.58;2.38;;;17.50;99.90;;;;;;5004086;28;20209;-90
2021/05/25 09:57:59;;;;;;;1.40;1.30;;;18.10;99.90;;;;;;5005903;28;20220;-92
2021/05/25 10:00:33;;;;;;;1.58;1.42;;;18.20;99.90;;;;;;5005002;28;20503;-91
2021/05/25 10:03:09;;;;;;;1.30;1.20;;;17.90;99.90;;;;;;5003277;28;20215;-92
2021/05/25 10:05:36;;;;;;;1.42;1.25;;;18.00;99.90;;;;;;5000409;28;20250;-92
2021/05/25 10:08:05;;;;;;;1.13;1.13;;;18.20;99.90;;;;;;5009220;28;20706;-91
2021/05/25 10:10:34;;;;;;;1.00;0.98;;;18.00;99.90;;;;;;5008220;28;20518;-92
2021/05/25 10:13:01;;;;;;;0.90;0.90;;;17.50;99.90;;;;;;5001996;28;20224;-90
2021/05/25 10:15:29;;;;;;;0.93;0.93;;;17.30;99.90;;;;;;5004117;28;20284;-91
2021/05/25 10:18:11;;;;;;;1.13;1.08;;;17.30;99.90;;;;;;5000569;28;20224;-90
2021/05/25 10:20:38;;;;;;;1.05;0.98;;;17.40;99.90;;;;;;5000069;28;20294;-90
2021/05/25 10:23:07;;;;;;;1.00;1.00;;;17.60;99.90;;;;;;5006115;28;20224;-91
2021/05/25 10:25:36;;;;;;;1.00;1.00;;;17.40;99.90;;;;;;5003291;28;20206;-90
2021/05/25 10:28:07;;;;;;;1.00;1.00;;;17.60;99.90;;;;;;5006362;28;20750;-90
2021/05/25 10:30:36;;;;;;;1.20;1.20;;;18.20;99.90;;;;;;5003743;28;20262;-90
2021/05/25 10:33:37;;;;;;;0.90;0.90;;;18.50;99.90;;;;;;5003063;28;20654;-90
2021/05/25 10:36:06;;;;;;;0.85;0.85;;;18.30;99.90;;;;;;5007400;28;20204;-90
2021/05/25 10:38:52;;;;;;;1.80;1.00;;;17.90;99.90;;;;;;5002544;28;20653;-91
2021/05/25 10:41:26;;;;;;;0.82;0.82;;;17.50;99.90;;;;;;5005197;28;20224;-88
2021/05/25 10:43:55;;;;;;;0.60;0.60;;;17.20;99.90;;;;;;5003571;28;20246;-91
2021/05/25 10:46:30;;;;;;;0.80;0.80;;;17.00;99.90;;;;;;5005017;28;20207;-89
2021/05/25 10:49:11;;;;;;;0.70;0.70;;;17.00;99.90;;;;;;5005488;28;20694;-89
2021/05/25 10:52:17;;;;;;;0.90;0.90;;;16.90;99.90;;;;;;5017052;28;20662;-91
2021/05/25 10:55:11;;;;;;;1.67;1.00;;;16.90;99.90;;;;;;5009919;28;20302;-90
2021/05/25 10:57:56;;;;;;;0.90;0.90;;;17.00;99.90;;;;;;5005741;28;20212;-90
2021/05/25 11:00:34;;;;;;;0.90;0.90;;;17.00;99.90;;;;;;5010268;28;20228;-91
2021/05/25 11:03:03;;;;;;;0.98;0.98;;;16.90;99.90;;;;;;5005739;28;20228;-89
2021/05/25 11:05:49;;;;;;;1.10;1.10;;;16.90;99.90;;;;;;5008913;28;20204;-87
2021/05/25 11:08:34;;;;;;;3.47;1.23;;;16.60;99.90;;;;;;5002466;28;20237;-90
2021/05/25 11:11:11;;;;;;;1.77;1.00;;;16.40;99.90;;;;;;5002052;28;20294;-89
2021/05/25 11:13:50;;;;;;;1.20;1.10;;;16.40;99.90;;;;;;5003232;28;20670;-80
2021/05/25 11:16:26;;;;;;;0.73;0.73;;;16.30;99.90;;;;;;4994111;28;20710;-79
2021/05/25 11:18:58;;;;;;;2.30;1.10;;;16.30;99.90;;;;;;4999162;28;20698;-88
2021/05/25 11:22:04;;;;;;;1.10;1.10;;;16.20;99.90;;;;;;5002836;28;20215;-79
2021/05/25 11:24:33;;;;;;;1.20;1.20;;;16.10;99.90;;;;;;5003215;28;20223;-80
2021/05/25 11:27:04;;;;;;;1.17;1.08;;;15.90;99.90;;;;;;5000851;28;20621;-80
2021/05/25 11:29:32;;;;;;;6.80;1.38;;;15.50;99.90;;;;;;5003525;28;20313;-79
2021/05/25 11:32:03;;;;;;;1.60;1.08;;;15.20;99.90;;;;;;5001053;28;20201;-83
2021/05/25 11:34:30;;;;;;;1.10;1.10;;;14.80;99.90;;;;;;5001907;28;20224;-80
2021/05/25 11:37:04;;;;;;;0.90;0.90;;;14.50;99.90;;;;;;5003302;28;20234;-80
2021/05/25 11:39:36;;;;;;;1.15;1.13;;;14.30;99.90;;;;;;5005897;28;20876;-79
2021/05/25 11:42:06;;;;;;;1.08;1.08;;;14.30;99.90;;;;;;5002733;28;20238;-80
2021/05/25 11:44:35;;;;;;;1.67;1.52;;;14.30;99.90;;;;;;5007809;28;20227;-91
2021/05/25 11:47:06;;;;;;;1.70;1.60;;;14.40;99.90;;;;;;5003829;28;20312;-93
2021/05/25 11:49:39;;;;;;;1.70;1.60;;;14.40;99.90;;;;;;5000975;28;20219;-92
2021/05/25 11:52:23;;;;;;;2.63;1.60;;;14.50;99.90;;;;;;5005373;28;20618;-91
2021/05/25 11:54:50;;;;;;;1.45;1.35;;;14.50;99.90;;;;;;5004609;28;20215;-92
2021/05/25 11:57:37;;;;;;;1.48;1.38;;;14.40;99.90;;;;;;5007441;28;20196;-91
2021/05/25 12:00:11;;;;;;;1.60;1.50;;;14.40;99.90;;;;;;5003798;28;20275;-91
2021/05/25 12:02:40;;;;;;;3.28;1.50;;;14.30;99.90;;;;;;5006330;28;20570;-92
2021/05/25 12:05:13;;;;;;;1.50;1.50;;;14.20;99.90;;;;;;5005595;28;20212;-92
2021/05/25 12:07:45;;;;;;;2.38;1.42;;;14.10;99.90;;;;;;5004750;28;20226;-92
2021/05/25 12:10:13;;;;;;;2.25;1.20;;;14.10;99.90;;;;;;5002807;28;20247;-90
2021/05/25 12:12:42;;;;;;;1.40;1.30;;;14.00;99.90;;;;;;5003087;28;20208;-90
2021/05/25 12:15:17;;;;;;;1.30;1.20;;;14.00;99.90;;;;;;5006862;28;21099;-90
2021/05/25 12:17:48;;;;;;;1.40;1.30;;;14.10;99.90;;;;;;5012526;28;20268;-91
2021/05/25 12:20:18;;;;;;;1.10;1.10;;;14.10;99.90;;;;;;5007433;28;20217;-89
2021/05/25 12:22:47;;;;;;;1.98;1.52;;;14.20;99.90;;;;;;5004428;28;20220;-91
2021/05/25 12:25:19;;;;;;;1.85;1.42;;;14.30;99.90;;;;;;5006259;28;20259;-90
2021/05/25 12:27:47;;;;;;;1.20;1.10;;;14.40;99.90;;;;;;5003715;28;20223;-92
2021/05/25 12:30:16;;;;;;;1.33;1.23;;;14.60;99.90;;;;;;4999194;28;20248;-93
2021/05/25 12:32:44;;;;;;;1.38;1.27;;;14.70;99.90;;;;;;5005055;28;20228;-92
2021/05/25 12:35:12;;;;;;;1.77;1.50;;;14.80;99.90;;;;;;5003780;28;20674;-91
2021/05/25 12:37:38;;;;;;;1.98;1.40;;;14.70;99.90;;;;;;5005086;28;20212;-91
2021/05/25 12:40:07;;;;;;;1.33;1.23;;;14.70;99.90;;;;;;5004669;28;20247;-92
2021/05/25 12:42:36;;;;;;;3.85;1.30;;;14.70;99.90;;;;;;5003852;28;20216;-89
2021/05/25 12:45:13;;;;;;;1.85;1.45;;;14.70;99.90;;;;;;5002736;28;20875;-88
2021/05/25 12:47:53;;;;;;;1.30;1.20;;;14.70;99.90;;;;;;5002896;28;20631;-91
2021/05/25 12:50:33;;;;;;;1.50;1.40;;;14.90;99.90;;;;;;4999034;28;20240;-91
2021/05/25 12:53:06;;;;;;;1.30;1.30;;;15.10;99.90;;;;;;5003483;28;20200;-90
2021/05/25 12:55:33;;;;;;;1.30;1.30;;;15.10;99.90;;;;;;4999133;28;20208;-92
2021/05/25 12:58:00;;;;;;;1.60;1.50;;;15.20;99.90;;;;;;5002690;28;20712;-91